sensor_id;sensor_type;location;lat;lon;timestamp;P1;durP1;ratioP1;P2;durP2;ratioP2
63782;SDS011;49925;52.522;5.732;2022-09-03T00:19:54;6.45;;;3.70;;
63782;SDS011;49925;52.522;5.732;2022-09-03T00:22:41;7.13;;;4.18;;
63782;SDS011;49925;52.522;5.732;2022-09-03T00:25:16;12.23;;;4.18;;
63782;SDS011;49925;52.522;5.732;2022-09-03T00:27:52;8.63;;;4.03;;
63782;SDS011;49925;52.522;5.732;2022-09-03T00:30:21;11.35;;;4.07;;
63782;SDS011;49925;52.522;5.732;2022-09-03T00:32:57;9.45;;;4.15;;
63782;SDS011;49925;52.522;5.732;2022-09-03T00:46:52;7.47;;;4.05;;
63782;SDS011;49925;52.522;5.732;2022-09-03T02:16:12;7.68;;;3.97;;
63782;SDS011;49925;52.522;5.732;2022-09-03T02:18:43;9.65;;;3.20;;
63782;SDS011;49925;52.522;5.732;2022-09-03T02:23:47;8.48;;;3.35;;
63782;SDS011;49925;52.522;5.732;2022-09-03T02:26:15;12.75;;;3.50;;
63782;SDS011;49925;52.522;5.732;2022-09-03T02:28:47;7.28;;;3.65;;
63782;SDS011;49925;52.522;5.732;2022-09-03T02:31:15;8.77;;;3.85;;
63782;SDS011;49925;52.522;5.732;2022-09-03T02:33:43;12.52;;;3.55;;
63782;SDS011;49925;52.522;5.732;2022-09-03T02:36:14;11.27;;;3.65;;
63782;SDS011;49925;52.522;5.732;2022-09-03T02:38:43;11.68;;;3.88;;
63782;SDS011;49925;52.522;5.732;2022-09-03T02:41:12;6.90;;;3.50;;
63782;SDS011;49925;52.522;5.732;2022-09-03T02:46:51;6.90;;;3.70;;
63782;SDS011;49925;52.522;5.732;2022-09-03T02:49:26;9.85;;;3.42;;
63782;SDS011;49925;52.522;5.732;2022-09-03T02:52:01;6.80;;;3.37;;
63782;SDS011;49925;52.522;5.732;2022-09-03T02:54:32;15.23;;;3.80;;
63782;SDS011;49925;52.522;5.732;2022-09-03T02:57:01;5.55;;;3.70;;
63782;SDS011;49925;52.522;5.732;2022-09-03T03:29:00;7.25;;;3.72;;
63782;SDS011;49925;52.522;5.732;2022-09-03T07:16:32;10.63;;;2.97;;
63782;SDS011;49925;52.522;5.732;2022-09-03T07:19:01;10.27;;;2.90;;
63782;SDS011;49925;52.522;5.732;2022-09-03T07:21:30;8.23;;;3.03;;
63782;SDS011;49925;52.522;5.732;2022-09-03T07:24:02;12.25;;;2.72;;
63782;SDS011;49925;52.522;5.732;2022-09-03T07:26:32;15.43;;;2.85;;
63782;SDS011;49925;52.522;5.732;2022-09-03T07:29:02;9.23;;;2.97;;
63782;SDS011;49925;52.522;5.732;2022-09-03T07:31:33;4.15;;;2.72;;
63782;SDS011;49925;52.522;5.732;2022-09-03T07:34:04;9.82;;;2.72;;
63782;SDS011;49925;52.522;5.732;2022-09-03T07:36:37;10.30;;;2.72;;
63782;SDS011;49925;52.522;5.732;2022-09-03T07:41:41;4.95;;;2.75;;
63782;SDS011;49925;52.522;5.732;2022-09-03T07:44:14;10.68;;;2.85;;
63782;SDS011;49925;52.522;5.732;2022-09-03T07:46:45;11.03;;;3.20;;
63782;SDS011;49925;52.522;5.732;2022-09-03T19:53:10;8.68;;;3.58;;
63782;SDS011;49925;52.522;5.732;2022-09-03T19:56:00;5.30;;;3.05;;
63782;SDS011;49925;52.522;5.732;2022-09-03T19:59:11;8.60;;;3.80;;
63782;SDS011;49925;52.522;5.732;2022-09-03T20:02:02;6.25;;;3.50;;
63782;SDS011;49925;52.522;5.732;2022-09-03T20:04:53;12.75;;;3.53;;
63782;SDS011;49925;52.522;5.732;2022-09-03T20:07:46;14.25;;;3.90;;
63782;SDS011;49925;52.522;5.732;2022-09-03T20:41:03;8.98;;;3.85;;
